This is the latest recevied weather packets stored in our database for station/object K7YVO. If no packets are shown the sender has not sent any weather packets the latest 10 day(s).
| Time | Temp. | Humidity | Pressure | Rain* | Wind** | Luminosity | Snow |
|---|---|---|---|---|---|---|---|
| 1777748873 | 13.33° C | 82% | 1017.2 hPa | 0 mm | - | 362 W/m² | - |
| 1777748570 | 13.33° C | 81% | 1017.2 hPa | 0 mm | - | 351 W/m² | - |
| 1777748265 | 13.33° C | 82% | 1017 hPa | 0 mm | - | 328 W/m² | - |
| 1777747961 | 13.33° C | 81% | 1017.3 hPa | 0 mm | - | 302 W/m² | - |
| 1777747657 | 12.78° C | 83% | 1017.1 hPa | 0 mm | - | 543 W/m² | - |
| 1777747348 | 13.33° C | 83% | 1017.4 hPa | 0 mm | - | 217 W/m² | - |
| 1777747045 | 13.33° C | 82% | 1017 hPa | 0 mm | - | 300 W/m² | - |
| 1777746741 | 12.78° C | 83% | 1016.8 hPa | 0 mm | - | 195 W/m² | - |
| 1777746436 | 12.78° C | 82% | 1017.1 hPa | 0 mm | - | 360 W/m² | - |
| 1777746131 | 12.22° C | 86% | 1017.2 hPa | 0 mm | - | 396 W/m² | - |
| 1777745828 | 12.78° C | 85% | 1017.1 hPa | 0 mm | - | 287 W/m² | - |
| 1777745523 | 11.67° C | 86% | 1017.5 hPa | 0 mm | - | 303 W/m² | - |
| 1777745219 | 11.67° C | 87% | 1017.4 hPa | 0 mm | - | 305 W/m² | - |
| 1777744916 | 11.67° C | 87% | 1017.4 hPa | 0 mm | - | 215 W/m² | - |
| 1777744615 | 11.67° C | 86% | 1017.7 hPa | 0 mm | - | 203 W/m² | - |
| 1777744311 | 12.78° C | 84% | 1017.6 hPa | 0 mm | - | 199 W/m² | - |
| 1777744009 | 12.22° C | 86% | 1017.9 hPa | 0 mm | - | 188 W/m² | - |
| 1777743704 | 12.22° C | 85% | 1017.8 hPa | 0 mm | - | 180 W/m² | - |
| 1777743402 | 11.67° C | 87% | 1017.6 hPa | 0 mm | - | 200 W/m² | - |
| 1777743100 | 11.67° C | 85% | 1017.7 hPa | 0 mm | - | 203 W/m² | - |
| 1777742797 | 11.67° C | 86% | 1017.9 hPa | 0 mm | - | 158 W/m² | - |
| 1777742494 | 11.67° C | 88% | 1017.9 hPa | 0 mm | - | 138 W/m² | - |
| 1777742189 | 11.11° C | 88% | 1018.1 hPa | 0 mm | - | 151 W/m² | - |
| 1777741886 | 11.11° C | 88% | 1018.2 hPa | 0 mm | - | 136 W/m² | - |
| 1777741584 | 11.11° C | 88% | 1018.2 hPa | 0 mm | - | 125 W/m² | - |
* Rain latest hour (hover to see other rain measurements)
** Current wind speed in m/s (hover to see current wind gust speed)